createdAt,value
2018-06-17T00:03:51.775Z,4.19
2018-06-17T00:09:46.806Z,4.64
2018-06-17T00:15:41.820Z,3.84
2018-06-17T00:21:36.802Z,4.77
2018-06-17T00:27:31.779Z,5.1
2018-06-17T00:33:26.756Z,4.42
2018-06-17T00:39:21.808Z,4.64
2018-06-17T00:45:16.784Z,6.27
2018-06-17T00:51:11.770Z,6.56
2018-06-17T00:57:06.796Z,6.62
2018-06-17T01:03:01.826Z,4.67
2018-06-17T01:08:56.780Z,4.58
2018-06-17T01:14:51.786Z,4.76
2018-06-17T01:20:46.774Z,4.31
2018-06-17T01:26:41.778Z,4.33
2018-06-17T01:32:36.789Z,4.27
2018-06-17T01:38:31.776Z,5.05
2018-06-17T01:56:16.791Z,4.71
2018-06-17T01:56:16.852Z,4.55
2018-06-17T02:02:11.843Z,4.93
2018-06-17T02:08:06.832Z,4.93
2018-06-17T02:14:01.834Z,5.49
2018-06-17T02:31:46.855Z,4.44
2018-06-17T02:31:47.820Z,4.25
2018-06-17T02:31:47.836Z,4.25
2018-06-17T02:37:41.837Z,4.79
2018-06-17T02:43:36.828Z,4.3
2018-06-17T02:49:31.822Z,4.23
2018-06-17T02:55:26.811Z,4.4
2018-06-17T03:01:21.798Z,4.34
2018-06-17T03:07:16.891Z,4.13
2018-06-17T03:13:11.926Z,4.62
2018-06-17T03:19:06.854Z,4.37
2018-06-17T03:25:01.857Z,4.02
2018-06-17T03:30:56.924Z,4.28
2018-06-17T03:36:51.865Z,4.85
2018-06-17T03:48:41.884Z,4.25
2018-06-17T03:48:41.889Z,4.62
2018-06-17T03:54:39.928Z,4.33
2018-06-17T04:00:31.846Z,4.6
2018-06-17T04:06:26.864Z,4.19
2018-06-17T04:12:21.914Z,4.23
2018-06-17T04:24:11.891Z,4.45
2018-06-17T04:24:11.949Z,4.76
2018-06-17T04:30:07.395Z,5.13
2018-06-17T04:41:56.859Z,4.46
2018-06-17T04:47:51.896Z,5.02
2018-06-17T04:53:46.850Z,6.35
2018-06-17T04:59:41.909Z,6.2
2018-06-17T05:11:31.922Z,6.2
2018-06-17T05:17:26.878Z,5.97
2018-06-17T05:23:21.874Z,6.24
2018-06-17T05:29:16.920Z,6.3
2018-06-17T05:35:11.902Z,5.94
2018-06-17T05:41:06.915Z,5.91
2018-06-17T05:47:01.866Z,5.55
2018-06-17T05:52:56.929Z,6.13
2018-06-17T05:58:51.922Z,6.5
2018-06-17T06:04:46.930Z,6.29
2018-06-17T06:10:41.951Z,6.77
2018-06-17T06:16:36.906Z,6.43
2018-06-17T06:22:31.923Z,6.72
2018-06-17T06:28:26.919Z,7.06
2018-06-17T06:34:21.878Z,7.29
2018-06-17T06:40:16.906Z,6.32
2018-06-17T06:52:06.948Z,7.26
2018-06-17T06:52:06.968Z,7.82
2018-06-17T06:58:01.919Z,7.04
2018-06-17T07:03:56.963Z,6.6
2018-06-17T07:09:51.897Z,6.78
2018-06-17T07:15:46.925Z,6.08
2018-06-17T07:21:41.924Z,6.01
2018-06-17T07:39:26.947Z,6.41
2018-06-17T07:39:27.004Z,5.6
2018-06-17T07:39:27.005Z,5.6
2018-06-17T07:45:21.944Z,5.64
2018-06-17T07:57:11.951Z,5.74
2018-06-17T07:57:11.992Z,5.59
2018-06-17T08:03:06.956Z,6.01
2018-06-17T08:09:01.962Z,5.65
2018-06-17T08:14:56.953Z,4.86
2018-06-17T08:20:51.929Z,4.54
2018-06-17T08:26:46.922Z,5.39
2018-06-17T08:32:41.942Z,5.95
2018-06-17T08:38:36.956Z,5.49
2018-06-17T08:44:31.972Z,5.84
2018-06-17T08:50:26.951Z,5.7
2018-06-17T08:56:21.944Z,8.49
2018-06-17T09:02:16.981Z,8.6
2018-06-17T09:08:11.959Z,8.32
2018-06-17T09:14:06.977Z,8.49
2018-06-17T09:20:02.004Z,6.82
2018-06-17T09:25:57.095Z,5.87
2018-06-17T09:31:52.055Z,6.71
2018-06-17T09:37:46.958Z,6.41
2018-06-17T09:43:41.970Z,6.32
2018-06-17T09:49:36.982Z,6
2018-06-17T09:55:32.036Z,5.57
2018-06-17T10:01:27.055Z,4.98
2018-06-17T10:19:12.674Z,4.7
2018-06-17T10:19:12.727Z,5.2
2018-06-17T10:19:12.755Z,5.2
2018-06-17T10:25:07.039Z,4.45
2018-06-17T10:31:01.996Z,4.38
2018-06-17T10:36:56.954Z,4.22
2018-06-17T10:42:51.981Z,4.09
2018-06-17T10:48:47.086Z,5.95
2018-06-17T10:54:41.983Z,3.27
2018-06-17T11:00:37.043Z,3.5
2018-06-17T11:06:32.003Z,3.77
2018-06-17T11:12:26.975Z,2.89
2018-06-17T11:18:22.017Z,2.93
2018-06-17T11:24:17.037Z,3.4
2018-06-17T11:30:12.006Z,3.1
2018-06-17T11:36:06.996Z,3.11
2018-06-17T11:42:01.983Z,2.66
2018-06-17T11:47:57.033Z,2.57
2018-06-17T11:53:52.011Z,2.7
2018-06-17T11:59:47.140Z,2.79
2018-06-17T12:05:42.022Z,3.07
2018-06-17T12:11:37.056Z,2.55
2018-06-17T12:17:32.029Z,2.64
2018-06-17T12:23:27.014Z,2.2
2018-06-17T12:29:22.076Z,2.25
2018-06-17T12:35:17.036Z,2.53
2018-06-17T12:41:12.048Z,2.25
2018-06-17T12:47:07.026Z,2.39
2018-06-17T12:53:02.038Z,2.18
2018-06-17T12:58:57.109Z,2.4
2018-06-17T13:04:52.040Z,2.65
2018-06-17T13:10:47.064Z,2.34
2018-06-17T13:16:42.078Z,2.05
2018-06-17T13:22:37.076Z,2.97
2018-06-17T13:28:32.061Z,3.16
2018-06-17T13:34:27.061Z,3.22
2018-06-17T13:40:22.070Z,3.14
2018-06-17T13:46:17.054Z,3.14
2018-06-17T13:52:12.030Z,2.96
2018-06-17T13:58:07.064Z,2.78
2018-06-17T14:04:02.046Z,3.32
2018-06-17T14:09:57.062Z,2.82
2018-06-17T14:15:52.077Z,2.56
2018-06-17T14:21:47.093Z,2.65
2018-06-17T14:27:42.130Z,3.03
2018-06-17T14:33:37.067Z,2.75
2018-06-17T14:39:32.072Z,3.02
2018-06-17T14:45:27.137Z,2.97
2018-06-17T14:51:22.105Z,2.97
2018-06-17T14:57:17.058Z,3.03
2018-06-17T15:03:12.054Z,2.6
2018-06-17T15:09:07.113Z,2.58
2018-06-17T15:15:02.084Z,2.41
2018-06-17T15:26:52.115Z,2.38
2018-06-17T15:26:52.134Z,2.54
2018-06-17T15:38:42.094Z,2.36
2018-06-17T15:38:42.167Z,1.97
2018-06-17T16:14:12.098Z,2.55
2018-06-17T16:14:12.195Z,2.06
2018-06-17T16:14:12.229Z,2.06
2018-06-17T16:14:12.234Z,2.06
2018-06-17T16:14:12.274Z,2.06
2018-06-17T16:14:12.311Z,2.06
2018-06-17T16:26:02.103Z,2.19
2018-06-17T16:37:52.133Z,2.34
2018-06-17T16:37:52.176Z,2.2
2018-06-17T17:13:22.349Z,3.01
2018-06-17T17:13:22.803Z,2.46
2018-06-17T17:13:22.815Z,2.46
2018-06-17T17:13:22.848Z,2.46
2018-06-17T17:13:22.875Z,2.46
2018-06-17T17:13:22.883Z,2.46
2018-06-17T17:19:17.184Z,2.07
2018-06-17T17:25:12.143Z,2.25
2018-06-17T17:31:07.202Z,2.2
2018-06-17T17:37:02.233Z,2.82
2018-06-17T17:42:57.123Z,2.36
2018-06-17T17:48:52.224Z,2.71
2018-06-17T17:54:47.144Z,2.58
2018-06-17T18:00:42.227Z,2.46
2018-06-17T18:06:37.162Z,2.64
2018-06-17T18:12:32.181Z,2.17
2018-06-17T18:18:27.178Z,2.75
2018-06-17T18:30:19.258Z,2.67
2018-06-17T18:36:12.205Z,2.26
2018-06-17T18:42:07.167Z,2.92
2018-06-17T18:53:59.237Z,2.92
2018-06-17T18:53:59.307Z,3.2
2018-06-17T19:11:42.191Z,3.48
2018-06-17T19:11:42.238Z,3.4
2018-06-17T19:11:42.250Z,3.4
2018-06-17T19:17:37.212Z,4.62
2018-06-17T19:29:27.198Z,3.57
2018-06-17T19:29:27.228Z,3.45
2018-06-17T19:35:22.251Z,3.96
2018-06-17T19:41:17.181Z,3.28
2018-06-17T19:47:12.167Z,3.53
2018-06-17T19:53:07.250Z,3.48
2018-06-17T19:59:02.184Z,3.78
2018-06-17T20:04:57.225Z,3.58
2018-06-17T20:10:52.195Z,3.43
2018-06-17T20:16:47.255Z,3.55
2018-06-17T20:22:42.219Z,3.5
2018-06-17T20:28:37.229Z,3.26
2018-06-17T20:34:32.272Z,3.4
2018-06-17T20:40:27.212Z,4.13
2018-06-17T20:46:22.249Z,4.13
2018-06-17T20:52:17.215Z,3.32
2018-06-17T20:58:12.239Z,3.86
2018-06-17T21:04:07.216Z,4.18
2018-06-17T21:10:02.238Z,4.26
2018-06-17T21:15:57.222Z,4.3
2018-06-17T21:21:52.214Z,4.18
2018-06-17T21:27:47.219Z,4.53
2018-06-17T21:33:42.222Z,4.55
2018-06-17T21:39:37.248Z,3.84
2018-06-17T21:45:32.252Z,4.29
2018-06-17T21:51:27.294Z,4.23
2018-06-17T21:57:22.268Z,3.77
2018-06-17T22:03:17.265Z,3.97
2018-06-17T22:09:12.282Z,4.64
2018-06-17T22:15:07.227Z,4.15
2018-06-17T22:21:02.305Z,4.33
2018-06-17T22:26:57.287Z,4.55
2018-06-17T22:32:52.312Z,3.99
2018-06-17T22:38:47.357Z,4.56
2018-06-17T22:44:42.270Z,4.57
2018-06-17T22:50:37.284Z,4.69
2018-06-17T22:56:32.288Z,4.82
2018-06-17T23:02:27.326Z,4.3
2018-06-17T23:08:22.276Z,4.37
2018-06-17T23:14:17.255Z,4.1
2018-06-17T23:20:12.288Z,4.01
2018-06-17T23:26:07.300Z,3.99
2018-06-17T23:32:02.299Z,3.95
2018-06-17T23:37:57.268Z,4.44
2018-06-17T23:43:52.300Z,4.1
2018-06-17T23:49:47.278Z,5.11
2018-06-17T23:55:42.272Z,4.49
